Time;durP1;ratioP1;P1;durP2;ratioP2;P2;SDS_P1;SDS_P2;PMS_P1;PMS_P2;Temp;Humidity;BMP_temperature;BMP_pressure;BME280_temperature;BME280_humidity;BME280_pressure;Samples;Min_cycle;Max_cycle;Signal;HPM_P1;HPM_P2
2021/01/23 00:00:13;;;;;;;9.48;8.50;;;5.40;99.90;;;;;;5072780;28;20684;-48
2021/01/23 00:02:40;;;;;;;9.43;8.52;;;5.40;99.90;;;;;;5072767;28;20218;-47
2021/01/23 00:05:09;;;;;;;12.10;9.63;;;5.40;99.90;;;;;;5072749;28;20272;-50
2021/01/23 00:07:35;;;;;;;10.23;9.25;;;5.40;99.90;;;;;;5072690;28;20203;-45
2021/01/23 00:10:03;;;;;;;10.77;9.02;;;5.30;99.90;;;;;;5072752;28;20214;-48
2021/01/23 00:12:31;;;;;;;11.75;9.27;;;5.30;99.90;;;;;;5072318;28;20207;-48
2021/01/23 00:14:58;;;;;;;9.55;8.65;;;5.30;99.90;;;;;;5072737;28;20290;-45
2021/01/23 00:17:25;;;;;;;8.98;8.18;;;5.30;99.90;;;;;;5072627;28;20230;-47
2021/01/23 00:19:52;;;;;;;8.13;7.32;;;5.20;99.90;;;;;;5072653;28;20211;-48
2021/01/23 00:22:20;;;;;;;9.35;8.45;;;5.20;99.90;;;;;;5072325;28;20210;-49
2021/01/23 00:24:47;;;;;;;8.75;7.55;;;5.20;99.90;;;;;;5072285;28;20288;-49
2021/01/23 00:27:14;;;;;;;8.20;7.53;;;5.20;99.90;;;;;;5072529;28;20199;-47
2021/01/23 00:29:41;;;;;;;8.65;7.78;;;5.20;99.90;;;;;;5072335;28;20264;-47
2021/01/23 00:32:08;;;;;;;9.35;8.55;;;5.10;99.90;;;;;;5072423;28;20298;-47
2021/01/23 00:34:35;;;;;;;8.73;7.82;;;5.20;99.90;;;;;;5072168;28;20204;-48
2021/01/23 00:37:02;;;;;;;8.82;8.00;;;5.10;99.90;;;;;;5071980;28;20233;-47
2021/01/23 00:39:30;;;;;;;8.68;7.88;;;5.10;99.90;;;;;;5072042;28;20582;-47
2021/01/23 00:41:57;;;;;;;8.38;7.55;;;5.10;99.90;;;;;;5072071;28;20269;-50
2021/01/23 00:44:24;;;;;;;8.43;7.43;;;5.10;99.90;;;;;;5072067;28;20289;-47
2021/01/23 00:46:55;;;;;;;8.27;7.53;;;5.10;99.90;;;;;;5071893;28;20674;-47
2021/01/23 00:49:23;;;;;;;9.43;8.52;;;5.10;99.90;;;;;;5071977;28;20210;-47
2021/01/23 00:51:50;;;;;;;9.07;8.18;;;5.10;99.90;;;;;;5071662;28;20661;-47
2021/01/23 00:54:17;;;;;;;12.30;7.85;;;5.10;99.90;;;;;;5072148;28;20650;-50
2021/01/23 00:56:45;;;;;;;7.72;7.03;;;5.10;99.90;;;;;;5071050;28;20255;-47
2021/01/23 00:59:12;;;;;;;8.20;7.43;;;5.20;99.90;;;;;;5071885;28;20701;-49
2021/01/23 01:01:40;;;;;;;7.82;7.13;;;5.10;99.90;;;;;;5071772;28;20730;-44
2021/01/23 01:04:07;;;;;;;8.13;7.35;;;5.10;99.90;;;;;;5071620;28;20207;-49
2021/01/23 01:06:34;;;;;;;7.68;6.78;;;5.10;99.90;;;;;;5071592;28;20242;-50
2021/01/23 01:09:01;;;;;;;7.20;6.50;;;5.10;99.90;;;;;;5071918;28;20299;-48
2021/01/23 01:11:28;;;;;;;8.13;7.32;;;5.10;99.90;;;;;;5071984;28;20203;-47
2021/01/23 01:13:56;;;;;;;10.35;7.85;;;5.10;99.90;;;;;;5071651;28;20329;-49
2021/01/23 01:16:23;;;;;;;7.75;7.05;;;5.10;99.90;;;;;;5071528;28;20314;-47
2021/01/23 01:18:50;;;;;;;7.80;7.05;;;5.10;99.90;;;;;;5071445;28;20214;-47
2021/01/23 01:21:17;;;;;;;6.78;6.18;;;5.20;99.90;;;;;;5071959;28;20846;-49
2021/01/23 01:23:44;;;;;;;6.78;6.07;;;5.20;99.90;;;;;;5071756;28;20243;-50
2021/01/23 01:26:11;;;;;;;6.28;5.72;;;5.20;99.90;;;;;;5071724;28;20643;-48
2021/01/23 01:28:38;;;;;;;6.22;5.68;;;5.20;99.90;;;;;;5071509;28;20303;-46
2021/01/23 01:31:06;;;;;;;5.43;4.95;;;5.20;99.90;;;;;;5071590;28;20298;-47
2021/01/23 01:33:33;;;;;;;5.28;4.78;;;5.20;99.90;;;;;;5071438;28;20663;-47
2021/01/23 01:36:00;;;;;;;4.70;4.30;;;5.10;99.90;;;;;;5071696;28;20203;-44
2021/01/23 01:38:27;;;;;;;3.22;2.92;;;5.00;99.90;;;;;;5071277;28;20258;-45
2021/01/23 01:40:54;;;;;;;3.78;3.47;;;5.00;99.90;;;;;;5071104;28;20207;-48
2021/01/23 01:43:21;;;;;;;3.58;3.28;;;4.90;99.90;;;;;;5071618;28;20214;-50
2021/01/23 01:45:48;;;;;;;2.63;2.42;;;4.80;99.90;;;;;;5071377;28;20773;-50
2021/01/23 01:48:16;;;;;;;3.03;2.83;;;4.70;99.90;;;;;;5071255;28;20647;-47
2021/01/23 01:50:43;;;;;;;3.88;3.63;;;4.60;99.90;;;;;;5071163;28;20211;-48
2021/01/23 01:53:11;;;;;;;3.05;2.67;;;4.50;99.90;;;;;;5071316;28;20737;-49
2021/01/23 01:55:39;;;;;;;2.78;2.55;;;4.40;99.90;;;;;;5071263;28;20211;-48
2021/01/23 01:58:05;;;;;;;2.20;2.00;;;4.40;99.90;;;;;;5071416;28;20697;-45
2021/01/23 02:00:32;;;;;;;2.42;1.70;;;4.30;99.90;;;;;;5071451;28;20298;-47
2021/01/23 02:03:14;;;;;;;1.65;1.55;;;4.20;99.90;;;;;;5071438;28;20239;-47
2021/01/23 02:05:50;;;;;;;1.42;1.33;;;4.00;99.90;;;;;;5071441;28;20272;-48
2021/01/23 02:08:24;;;;;;;1.45;1.35;;;3.90;99.90;;;;;;5073885;28;20293;-48
2021/01/23 02:11:01;;;;;;;1.45;1.35;;;3.80;99.90;;;;;;5075275;28;20290;-48
2021/01/23 02:13:31;;;;;;;1.25;1.15;;;3.60;99.90;;;;;;5074984;28;20274;-49
2021/01/23 02:16:04;;;;;;;1.08;1.00;;;3.50;99.90;;;;;;5074964;28;20243;-50
2021/01/23 02:18:38;;;;;;;1.38;1.27;;;3.40;99.90;;;;;;5074973;28;20223;-53
2021/01/23 02:21:50;;;;;;;1.35;1.25;;;3.40;99.90;;;;;;5074078;28;20434;-49
2021/01/23 02:24:23;;;;;;;1.20;1.13;;;3.50;99.90;;;;;;5075148;28;20390;-48
2021/01/23 02:27:03;;;;;;;1.40;1.30;;;3.40;99.90;;;;;;5075100;28;20290;-47
2021/01/23 02:29:40;;;;;;;1.23;1.13;;;3.40;99.90;;;;;;5074777;28;20756;-47
2021/01/23 02:32:09;;;;;;;1.10;1.00;;;3.30;99.90;;;;;;5075012;28;20249;-46
2021/01/23 02:34:37;;;;;;;0.88;0.82;;;3.20;99.90;;;;;;5074844;28;20203;-49
2021/01/23 02:37:05;;;;;;;0.60;0.60;;;3.10;99.90;;;;;;5074677;28;20262;-52
2021/01/23 02:39:34;;;;;;;1.05;0.90;;;3.10;99.90;;;;;;5074798;28;20235;-46
2021/01/23 02:42:01;;;;;;;0.52;0.52;;;3.10;99.90;;;;;;5074584;28;20207;-49
2021/01/23 02:44:28;;;;;;;0.82;0.82;;;3.00;99.90;;;;;;5074540;28;20246;-47
2021/01/23 02:46:57;;;;;;;0.90;0.90;;;3.00;99.90;;;;;;5074598;28;20677;-49
2021/01/23 02:49:25;;;;;;;0.98;0.93;;;3.00;99.90;;;;;;5074851;28;20214;-47
2021/01/23 02:52:00;;;;;;;0.82;0.82;;;3.00;99.90;;;;;;5074372;28;20736;-52
2021/01/23 02:54:35;;;;;;;0.80;0.80;;;3.00;99.90;;;;;;5074646;28;20298;-52
2021/01/23 02:57:03;;;;;;;1.10;1.00;;;3.00;99.90;;;;;;5074776;28;20431;-50
2021/01/23 02:59:31;;;;;;;0.90;0.90;;;3.00;99.90;;;;;;5074540;28;20217;-48
2021/01/23 03:02:00;;;;;;;0.90;0.90;;;3.00;99.90;;;;;;5074534;28;20706;-47
2021/01/23 03:04:29;;;;;;;0.80;0.80;;;3.00;99.90;;;;;;5074344;28;20222;-51
2021/01/23 03:06:57;;;;;;;0.90;0.90;;;2.90;99.90;;;;;;5074141;28;20697;-46
2021/01/23 03:09:25;;;;;;;0.90;0.90;;;2.90;99.90;;;;;;5074179;28;20564;-49
2021/01/23 03:11:53;;;;;;;1.10;1.00;;;2.90;99.90;;;;;;5074090;28;20330;-49
2021/01/23 03:14:21;;;;;;;1.30;1.23;;;2.90;99.90;;;;;;5073888;28;20547;-45
2021/01/23 03:16:48;;;;;;;0.90;0.90;;;2.90;99.90;;;;;;5074032;28;20210;-45
2021/01/23 03:19:16;;;;;;;1.52;1.08;;;2.90;99.90;;;;;;5072896;28;20218;-46
2021/01/23 03:21:44;;;;;;;1.15;1.05;;;2.90;99.90;;;;;;5073800;28;20214;-45
2021/01/23 03:24:11;;;;;;;2.30;1.20;;;2.90;99.90;;;;;;5073769;28;20594;-46
2021/01/23 03:26:39;;;;;;;1.30;1.20;;;2.90;99.90;;;;;;5073942;28;20239;-47
2021/01/23 03:29:06;;;;;;;1.17;1.17;;;2.90;99.90;;;;;;5073758;28;20303;-45
2021/01/23 03:31:34;;;;;;;0.77;0.77;;;2.80;99.90;;;;;;5073721;28;20250;-45
2021/01/23 03:34:03;;;;;;;0.80;0.80;;;2.80;99.90;;;;;;5073439;28;20696;-45
2021/01/23 03:36:30;;;;;;;1.00;0.90;;;2.90;99.90;;;;;;5073901;28;20233;-46
2021/01/23 03:38:58;;;;;;;0.90;0.90;;;2.80;99.90;;;;;;5073655;28;20246;-48
2021/01/23 03:41:25;;;;;;;1.00;1.00;;;2.80;99.90;;;;;;5073591;28;20229;-46
2021/01/23 03:43:52;;;;;;;0.80;0.80;;;2.80;99.90;;;;;;5073556;28;20211;-46
2021/01/23 03:46:19;;;;;;;0.70;0.70;;;2.70;99.90;;;;;;5073625;28;20303;-48
2021/01/23 03:48:46;;;;;;;1.50;1.40;;;2.70;99.90;;;;;;5073230;28;20751;-47
2021/01/23 03:51:14;;;;;;;1.08;1.00;;;2.70;99.90;;;;;;5073306;28;20219;-51
2021/01/23 03:53:41;;;;;;;1.25;1.20;;;2.60;99.90;;;;;;5073186;28;20692;-49
2021/01/23 03:56:08;;;;;;;0.63;0.63;;;2.60;99.90;;;;;;5073307;28;20262;-48
2021/01/23 03:58:35;;;;;;;1.05;0.93;;;2.60;99.90;;;;;;5073240;28;20301;-49
2021/01/23 04:01:04;;;;;;;0.70;0.70;;;2.50;99.90;;;;;;5073091;28;20211;-48
2021/01/23 04:03:31;;;;;;;0.55;0.55;;;2.50;99.90;;;;;;5073013;28;20215;-48
2021/01/23 04:05:58;;;;;;;0.80;0.80;;;2.50;99.90;;;;;;5073228;28;20310;-48
2021/01/23 04:08:25;;;;;;;0.80;0.80;;;2.50;99.90;;;;;;5073066;28;20677;-44
2021/01/23 04:10:52;;;;;;;0.70;0.70;;;2.50;99.90;;;;;;5073089;28;20640;-46
2021/01/23 04:13:20;;;;;;;2.08;0.90;;;2.50;99.90;;;;;;5073147;28;20243;-46
2021/01/23 04:15:47;;;;;;;1.10;1.00;;;2.50;99.90;;;;;;5072771;28;20239;-45
2021/01/23 04:18:15;;;;;;;1.05;0.80;;;2.40;99.90;;;;;;5072712;28;20723;-50
2021/01/23 04:20:42;;;;;;;0.70;0.70;;;2.50;99.90;;;;;;5073020;28;20735;-45
2021/01/23 04:23:09;;;;;;;0.70;0.70;;;2.50;99.90;;;;;;5072688;28;20696;-45
2021/01/23 04:25:36;;;;;;;0.90;0.90;;;2.40;99.90;;;;;;5072751;28;20270;-47
2021/01/23 04:28:03;;;;;;;0.77;0.77;;;2.40;99.90;;;;;;5072749;28;20649;-47
2021/01/23 04:30:31;;;;;;;0.70;0.70;;;2.40;99.90;;;;;;5072240;28;20294;-46
2021/01/23 04:32:58;;;;;;;0.95;0.80;;;2.40;99.90;;;;;;5072698;28;20234;-46
2021/01/23 04:35:25;;;;;;;0.80;0.80;;;2.40;99.90;;;;;;5072713;28;20325;-47
2021/01/23 04:37:52;;;;;;;0.80;0.80;;;2.40;99.90;;;;;;5072291;28;20219;-47
2021/01/23 04:40:19;;;;;;;1.00;1.00;;;2.40;99.90;;;;;;5072403;28;20215;-45
2021/01/23 04:42:47;;;;;;;0.77;0.77;;;2.40;99.90;;;;;;5072488;28;20258;-47
2021/01/23 04:45:14;;;;;;;0.80;0.80;;;2.40;99.90;;;;;;5072204;28;20290;-48
2021/01/23 04:47:42;;;;;;;0.70;0.70;;;2.40;99.90;;;;;;5072505;28;20231;-44
2021/01/23 04:50:11;;;;;;;0.90;0.90;;;2.40;99.90;;;;;;5072271;28;20247;-44
2021/01/23 04:52:39;;;;;;;0.80;0.80;;;2.40;99.90;;;;;;5072248;28;20553;-45
2021/01/23 04:55:07;;;;;;;0.85;0.85;;;2.40;99.90;;;;;;5072292;28;20235;-46
2021/01/23 04:57:34;;;;;;;1.00;1.00;;;2.40;99.90;;;;;;5072087;28;20259;-48
2021/01/23 05:00:03;;;;;;;0.90;0.90;;;2.40;99.90;;;;;;5071975;28;20303;-45
2021/01/23 05:02:30;;;;;;;0.90;0.90;;;2.40;99.90;;;;;;5072264;28;20247;-46
2021/01/23 05:05:00;;;;;;;1.13;1.13;;;2.30;99.90;;;;;;5072104;28;20655;-45
2021/01/23 05:07:28;;;;;;;1.88;1.08;;;2.40;99.90;;;;;;5071928;28;20290;-45
2021/01/23 05:09:56;;;;;;;0.90;0.90;;;2.40;99.90;;;;;;5072043;28;20207;-45
2021/01/23 05:12:37;;;;;;;0.85;0.85;;;2.40;99.90;;;;;;5071767;28;20225;-46
2021/01/23 05:15:08;;;;;;;0.90;0.90;;;2.40;99.90;;;;;;5072031;28;20298;-45
2021/01/23 05:17:53;;;;;;;0.98;0.98;;;2.40;99.90;;;;;;5071655;28;20223;-46
2021/01/23 05:20:35;;;;;;;0.77;0.77;;;2.40;99.90;;;;;;5071717;28;20234;-47
2021/01/23 05:23:05;;;;;;;1.17;1.08;;;2.50;99.90;;;;;;5071491;28;20678;-44
2021/01/23 05:25:33;;;;;;;0.93;0.93;;;2.50;99.90;;;;;;5071684;28;20241;-46
2021/01/23 05:28:01;;;;;;;1.13;1.13;;;2.50;99.90;;;;;;5071716;28;20298;-38
2021/01/23 05:30:46;;;;;;;1.30;1.20;;;2.50;99.90;;;;;;5071891;28;20203;-43
2021/01/23 05:33:15;;;;;;;2.45;1.27;;;2.50;99.90;;;;;;5071546;28;20207;-45
2021/01/23 05:35:44;;;;;;;1.13;1.13;;;2.40;99.90;;;;;;5071855;28;20685;-46
2021/01/23 05:38:22;;;;;;;1.10;1.10;;;2.50;99.90;;;;;;5071832;28;20259;-46
2021/01/23 05:40:52;;;;;;;1.10;1.10;;;2.50;99.90;;;;;;5071713;28;20242;-47
2021/01/23 05:43:33;;;;;;;1.40;1.30;;;2.50;99.90;;;;;;5076902;28;20693;-47
2021/01/23 05:46:02;;;;;;;1.00;1.00;;;2.50;99.90;;;;;;5078486;28;20243;-47
2021/01/23 05:48:30;;;;;;;1.15;1.10;;;2.50;99.90;;;;;;5078392;28;20203;-45
2021/01/23 05:50:58;;;;;;;1.13;1.10;;;2.50;99.90;;;;;;5078189;28;20239;-46
2021/01/23 05:53:25;;;;;;;0.90;0.90;;;2.50;99.90;;;;;;5078027;28;20215;-45
2021/01/23 05:55:52;;;;;;;1.33;1.23;;;2.50;99.90;;;;;;5078128;28;20256;-46
2021/01/23 05:58:19;;;;;;;1.50;1.40;;;2.60;99.90;;;;;;5077982;28;20723;-47
2021/01/23 06:00:48;;;;;;;1.50;1.38;;;2.50;99.90;;;;;;5078185;28;20247;-48
2021/01/23 06:03:16;;;;;;;1.88;1.70;;;2.50;99.90;;;;;;5078178;28;20642;-44
2021/01/23 06:05:43;;;;;;;1.38;1.30;;;2.50;99.90;;;;;;5077858;28;20311;-44
2021/01/23 06:08:11;;;;;;;1.90;1.50;;;2.50;99.90;;;;;;5077988;28;20270;-43
2021/01/23 06:10:44;;;;;;;1.55;1.45;;;2.50;99.90;;;;;;5077810;28;20247;-46
2021/01/23 06:13:37;;;;;;;1.38;1.27;;;2.50;99.90;;;;;;5078119;28;20270;-46
2021/01/23 06:16:05;;;;;;;2.60;1.60;;;2.60;99.90;;;;;;5078097;28;20646;-46
2021/01/23 06:18:33;;;;;;;1.30;1.30;;;2.60;99.90;;;;;;5077783;28;20677;-44
2021/01/23 06:21:02;;;;;;;1.45;1.35;;;2.60;99.90;;;;;;5077890;28;20317;-47
2021/01/23 06:23:50;;;;;;;1.40;1.30;;;2.60;99.90;;;;;;5078136;28;20260;-48
2021/01/23 06:26:18;;;;;;;1.63;1.52;;;2.60;99.90;;;;;;5077908;28;20664;-46
2021/01/23 06:28:50;;;;;;;1.70;1.60;;;2.60;99.90;;;;;;5077999;28;20239;-45
2021/01/23 06:31:32;;;;;;;1.83;1.73;;;2.50;99.90;;;;;;5077742;28;20229;-47
2021/01/23 06:34:01;;;;;;;2.08;1.90;;;2.50;99.90;;;;;;5077863;28;20207;-46
2021/01/23 06:36:29;;;;;;;1.20;1.20;;;2.60;99.90;;;;;;5078046;28;20630;-45
2021/01/23 06:39:09;;;;;;;1.60;1.50;;;2.60;99.90;;;;;;5077635;28;20310;-46
2021/01/23 06:41:37;;;;;;;2.58;2.38;;;2.50;99.90;;;;;;5077796;28;20684;-49
2021/01/23 06:44:12;;;;;;;2.00;1.90;;;2.50;99.90;;;;;;5077552;28;20306;-46
2021/01/23 06:46:41;;;;;;;1.48;1.38;;;2.60;99.90;;;;;;5077806;28;20355;-46
2021/01/23 06:49:10;;;;;;;1.60;1.50;;;2.60;99.90;;;;;;5077454;28;20260;-44
2021/01/23 06:51:38;;;;;;;2.55;1.30;;;2.70;99.90;;;;;;5077385;28;20800;-43
2021/01/23 06:54:14;;;;;;;1.40;1.30;;;2.70;99.90;;;;;;5075586;28;20622;-47
2021/01/23 06:56:46;;;;;;;1.60;1.50;;;2.70;99.90;;;;;;5074243;28;20644;-42
2021/01/23 06:59:24;;;;;;;1.48;1.48;;;2.70;99.90;;;;;;5074477;28;20371;-43
2021/01/23 07:02:10;;;;;;;1.55;1.45;;;2.70;99.90;;;;;;5074261;28;20211;-44
2021/01/23 07:04:45;;;;;;;1.52;1.42;;;2.70;99.90;;;;;;5074128;28;20305;-43
2021/01/23 07:07:13;;;;;;;1.50;1.40;;;2.70;99.90;;;;;;5074180;28;20660;-44
2021/01/23 07:09:48;;;;;;;1.42;1.33;;;2.70;99.90;;;;;;5074233;28;20645;-44
2021/01/23 07:12:34;;;;;;;2.00;1.80;;;2.70;99.90;;;;;;5073880;28;20206;-44
2021/01/23 07:15:02;;;;;;;2.20;1.98;;;2.80;99.90;;;;;;5073784;28;20215;-45
2021/01/23 07:17:34;;;;;;;2.40;2.20;;;2.80;99.90;;;;;;5073800;28;20242;-43
2021/01/23 07:20:06;;;;;;;1.77;1.67;;;2.80;99.90;;;;;;5073962;28;20792;-48
2021/01/23 07:22:34;;;;;;;2.20;2.10;;;2.80;99.90;;;;;;5073818;28;20203;-44
2021/01/23 07:25:03;;;;;;;2.75;2.45;;;2.80;99.90;;;;;;5073845;28;20294;-45
2021/01/23 07:27:31;;;;;;;2.10;1.88;;;2.90;99.90;;;;;;5073715;28;20218;-45
2021/01/23 07:29:58;;;;;;;2.15;2.03;;;2.90;99.90;;;;;;5073602;28;20221;-44
2021/01/23 07:32:35;;;;;;;4.32;2.60;;;2.90;99.90;;;;;;5073919;28;20341;-47
2021/01/23 07:35:04;;;;;;;3.00;2.65;;;2.90;99.90;;;;;;5073668;28;20257;-45
2021/01/23 07:37:53;;;;;;;2.95;2.05;;;3.00;99.90;;;;;;5073317;28;20250;-46
2021/01/23 07:40:23;;;;;;;2.30;2.17;;;3.00;99.90;;;;;;5072021;28;20308;-46
2021/01/23 07:42:51;;;;;;;2.75;2.50;;;3.00;99.90;;;;;;5073396;28;20253;-43
2021/01/23 07:45:20;;;;;;;2.20;2.00;;;3.10;99.90;;;;;;5073630;28;20298;-45
2021/01/23 07:47:54;;;;;;;2.70;2.50;;;3.00;99.90;;;;;;5073427;28;20207;-46
2021/01/23 07:50:22;;;;;;;3.83;2.63;;;3.00;99.90;;;;;;5073408;28;20203;-45
2021/01/23 07:52:51;;;;;;;3.35;2.97;;;3.10;99.90;;;;;;5073171;28;20211;-45
2021/01/23 07:55:18;;;;;;;4.15;2.55;;;3.10;99.90;;;;;;5073243;28;20207;-45
2021/01/23 07:58:07;;;;;;;2.55;2.35;;;3.20;99.90;;;;;;5072897;28;20623;-46
2021/01/23 08:00:35;;;;;;;2.55;2.35;;;3.20;99.90;;;;;;5073173;28;20298;-43
2021/01/23 08:03:02;;;;;;;3.17;2.90;;;3.20;99.90;;;;;;5073123;28;20242;-42
2021/01/23 08:05:43;;;;;;;6.22;3.00;;;3.30;99.90;;;;;;5072597;28;20207;-43
2021/01/23 08:08:11;;;;;;;4.25;3.00;;;3.30;99.90;;;;;;5073120;28;20294;-44
2021/01/23 08:10:39;;;;;;;2.72;2.53;;;3.30;99.90;;;;;;5073011;28;20230;-45
2021/01/23 08:13:08;;;;;;;6.10;4.07;;;3.40;99.90;;;;;;5073093;28;20238;-44
2021/01/23 08:15:37;;;;;;;5.03;4.00;;;3.40;99.90;;;;;;5073041;28;20650;-42
2021/01/23 08:18:16;;;;;;;4.53;2.97;;;3.40;99.90;;;;;;5073235;28;20227;-42
2021/01/23 08:20:43;;;;;;;3.92;3.63;;;3.50;99.90;;;;;;5073159;28;20203;-42
2021/01/23 08:23:11;;;;;;;5.40;3.67;;;3.60;99.90;;;;;;5072937;28;20760;-44
2021/01/23 08:25:45;;;;;;;3.75;3.38;;;3.70;99.90;;;;;;5072737;28;20256;-43
2021/01/23 08:28:14;;;;;;;6.13;4.18;;;3.70;99.90;;;;;;5072597;28;20339;-45
2021/01/23 08:30:41;;;;;;;6.70;4.38;;;3.80;99.90;;;;;;5072810;28;20298;-44
2021/01/23 08:33:11;;;;;;;3.70;3.40;;;3.80;99.90;;;;;;5072835;28;20302;-44
2021/01/23 08:35:40;;;;;;;6.20;4.70;;;3.80;99.90;;;;;;5073029;28;20216;-51
2021/01/23 08:38:09;;;;;;;3.15;2.90;;;3.90;99.90;;;;;;5072689;28;20232;-46
2021/01/23 08:40:37;;;;;;;11.95;7.30;;;3.90;99.90;;;;;;5072599;28;20204;-48
2021/01/23 08:43:05;;;;;;;8.02;5.38;;;3.90;99.90;;;;;;5072738;28;20246;-49
2021/01/23 08:45:33;;;;;;;14.38;8.93;;;4.00;99.90;;;;;;5072781;28;20223;-48
2021/01/23 08:48:00;;;;;;;7.22;6.00;;;4.00;99.90;;;;;;5072409;28;20258;-45
2021/01/23 08:50:27;;;;;;;9.98;6.47;;;4.00;99.90;;;;;;5072509;28;20698;-45
2021/01/23 08:52:54;;;;;;;9.13;5.28;;;4.00;99.90;;;;;;5072345;28;20211;-47
2021/01/23 08:55:21;;;;;;;5.63;4.55;;;4.00;99.90;;;;;;5072360;28;20852;-48
2021/01/23 08:57:48;;;;;;;5.15;4.38;;;4.00;99.90;;;;;;5072347;28;20309;-46
2021/01/23 09:00:16;;;;;;;6.50;5.25;;;4.10;99.90;;;;;;5072471;28;20216;-45
2021/01/23 09:02:44;;;;;;;4.60;3.80;;;4.10;99.90;;;;;;5072369;28;20234;-44
2021/01/23 09:05:12;;;;;;;5.75;4.57;;;4.10;99.90;;;;;;5072328;28;20410;-44
2021/01/23 09:07:40;;;;;;;5.35;4.80;;;4.10;99.90;;;;;;5072110;28;20585;-42
2021/01/23 09:10:09;;;;;;;4.28;3.30;;;4.20;99.90;;;;;;5072300;28;20257;-45
2021/01/23 09:12:36;;;;;;;4.45;2.92;;;4.20;99.90;;;;;;5071964;28;20682;-42
2021/01/23 09:15:05;;;;;;;4.13;3.72;;;4.30;99.90;;;;;;5072492;28;20207;-42
2021/01/23 09:17:32;;;;;;;5.25;4.25;;;4.30;99.90;;;;;;5071236;28;20652;-44
2021/01/23 09:20:00;;;;;;;4.22;3.60;;;4.50;99.90;;;;;;5071946;28;20724;-45
2021/01/23 09:22:29;;;;;;;4.22;3.78;;;4.60;99.90;;;;;;5071795;28;20641;-45
2021/01/23 09:24:56;;;;;;;2.67;2.47;;;4.60;99.90;;;;;;5071806;28;20306;-43
2021/01/23 09:27:23;;;;;;;3.97;2.90;;;4.60;99.90;;;;;;5071674;28;20250;-44
2021/01/23 09:29:50;;;;;;;2.97;2.65;;;4.60;99.90;;;;;;5071641;28;20793;-46
2021/01/23 09:32:18;;;;;;;2.63;2.42;;;4.60;99.90;;;;;;5071591;28;20688;-44
2021/01/23 09:34:45;;;;;;;2.70;2.50;;;4.70;99.90;;;;;;5071755;28;20203;-43
2021/01/23 09:37:14;;;;;;;3.25;2.95;;;4.70;99.90;;;;;;5072036;28;20222;-46
2021/01/23 09:39:41;;;;;;;3.25;2.95;;;4.70;99.90;;;;;;5071807;28;20258;-50
2021/01/23 09:42:08;;;;;;;3.05;2.85;;;4.80;99.90;;;;;;5071598;28;20306;-51
2021/01/23 09:44:35;;;;;;;3.10;2.80;;;4.90;99.90;;;;;;5071727;28;20631;-47
2021/01/23 09:47:02;;;;;;;3.38;3.08;;;5.00;99.90;;;;;;5071651;28;20243;-44
2021/01/23 09:49:29;;;;;;;3.65;3.35;;;5.00;99.90;;;;;;5071546;28;21073;-43
2021/01/23 09:51:56;;;;;;;3.45;3.15;;;5.10;99.90;;;;;;5071909;28;20576;-46
2021/01/23 09:54:24;;;;;;;3.03;2.83;;;5.20;99.90;;;;;;5071571;28;20565;-47
2021/01/23 09:57:01;;;;;;;3.95;3.55;;;5.40;99.90;;;;;;5071628;28;20210;-45
2021/01/23 09:59:29;;;;;;;4.60;3.22;;;5.40;99.90;;;;;;5071563;28;20685;-45
2021/01/23 10:01:57;;;;;;;2.65;2.45;;;5.50;99.90;;;;;;5071451;28;20303;-45
2021/01/23 10:04:25;;;;;;;2.88;2.67;;;5.60;99.90;;;;;;5071461;28;20269;-47
2021/01/23 10:06:52;;;;;;;3.25;2.95;;;5.60;99.90;;;;;;5071389;28;20302;-48
2021/01/23 10:09:20;;;;;;;3.20;3.00;;;5.60;99.90;;;;;;5071216;28;20715;-47
2021/01/23 10:11:48;;;;;;;3.03;2.72;;;5.80;99.90;;;;;;5071262;28;20207;-46
2021/01/23 10:14:16;;;;;;;4.10;3.80;;;5.90;99.90;;;;;;5071249;28;20239;-50
2021/01/23 10:16:43;;;;;;;3.47;3.20;;;6.00;99.90;;;;;;5071619;28;20295;-51
2021/01/23 10:19:10;;;;;;;4.43;3.28;;;6.10;99.90;;;;;;5071462;28;20228;-51
2021/01/23 10:21:38;;;;;;;3.47;3.20;;;6.10;99.90;;;;;;5071446;28;20215;-48
2021/01/23 10:24:06;;;;;;;3.58;3.28;;;6.20;99.90;;;;;;5071308;28;20305;-48
2021/01/23 10:26:33;;;;;;;3.03;2.72;;;6.20;99.90;;;;;;5071256;28;20212;-47
2021/01/23 10:29:01;;;;;;;2.50;2.30;;;6.20;99.90;;;;;;5073121;28;20203;-48
2021/01/23 10:31:28;;;;;;;4.13;3.08;;;6.00;99.90;;;;;;5074977;28;20321;-46
2021/01/23 10:33:55;;;;;;;4.25;3.55;;;6.00;99.90;;;;;;5075131;28;20211;-49
2021/01/23 10:36:22;;;;;;;5.07;3.30;;;5.90;99.90;;;;;;5074991;28;20215;-44
2021/01/23 10:38:49;;;;;;;3.63;3.33;;;5.90;99.90;;;;;;5074788;28;20314;-44
2021/01/23 10:41:16;;;;;;;4.88;4.10;;;6.00;99.90;;;;;;5074716;28;20729;-46
2021/01/23 10:43:43;;;;;;;4.00;3.13;;;6.00;99.90;;;;;;5074815;28;20294;-48
2021/01/23 10:46:12;;;;;;;3.67;3.38;;;6.20;99.90;;;;;;5074710;28;20301;-43
2021/01/23 10:48:40;;;;;;;4.30;3.90;;;6.20;99.90;;;;;;5074617;28;20250;-43
2021/01/23 10:51:08;;;;;;;4.18;3.53;;;6.10;99.90;;;;;;5074687;28;20297;-44
2021/01/23 10:53:35;;;;;;;14.63;8.85;;;6.10;99.90;;;;;;5074569;28;20639;-43
2021/01/23 10:56:03;;;;;;;5.05;4.53;;;6.20;99.90;;;;;;5074497;28;20261;-43
2021/01/23 10:58:30;;;;;;;5.18;4.57;;;6.30;99.90;;;;;;5074869;28;20223;-46
2021/01/23 11:00:57;;;;;;;4.28;3.88;;;6.40;99.90;;;;;;5074549;28;20303;-46
2021/01/23 11:03:25;;;;;;;6.57;3.72;;;6.40;99.90;;;;;;5074419;28;20294;-44
2021/01/23 11:05:54;;;;;;;4.57;4.18;;;6.40;99.90;;;;;;5074156;28;20625;-42
2021/01/23 11:08:21;;;;;;;5.50;4.07;;;6.40;99.90;;;;;;5074251;28;20211;-42
2021/01/23 11:10:48;;;;;;;9.20;6.07;;;6.40;99.90;;;;;;5074307;28;20203;-50
2021/01/23 11:13:15;;;;;;;4.30;3.90;;;6.30;99.90;;;;;;5074235;28;20777;-48
2021/01/23 11:15:45;;;;;;;4.32;3.92;;;6.20;99.90;;;;;;5074168;28;20211;-51
2021/01/23 11:18:12;;;;;;;4.53;4.10;;;6.10;99.90;;;;;;5074172;28;20211;-48
2021/01/23 11:20:40;;;;;;;5.43;4.78;;;5.90;99.90;;;;;;5074151;28;20341;-50
2021/01/23 11:23:07;;;;;;;4.72;4.30;;;5.80;99.90;;;;;;5073952;28;20294;-45
2021/01/23 11:25:34;;;;;;;5.05;4.55;;;5.80;99.90;;;;;;5073987;28;20233;-47
2021/01/23 11:28:01;;;;;;;9.73;7.70;;;5.70;99.90;;;;;;5073999;28;20290;-42
2021/01/23 11:30:28;;;;;;;4.93;4.43;;;5.80;99.90;;;;;;5074028;28;20295;-42
2021/01/23 11:32:55;;;;;;;11.75;7.32;;;5.80;99.90;;;;;;5074008;28;20568;-45
2021/01/23 11:35:25;;;;;;;11.38;8.60;;;5.90;99.90;;;;;;5073765;28;20215;-47
2021/01/23 11:37:53;;;;;;;5.78;5.28;;;5.90;99.90;;;;;;5073676;28;20269;-46
2021/01/23 11:40:20;;;;;;;4.88;4.43;;;6.00;99.90;;;;;;5072909;28;20322;-42
2021/01/23 11:42:47;;;;;;;4.95;4.45;;;5.90;99.90;;;;;;5073796;28;20261;-41
2021/01/23 11:45:15;;;;;;;5.20;4.80;;;5.90;99.90;;;;;;5073636;28;20307;-41
2021/01/23 11:47:42;;;;;;;5.30;4.90;;;5.90;99.90;;;;;;5073891;28;20215;-41
2021/01/23 11:50:10;;;;;;;7.07;5.20;;;5.90;99.90;;;;;;5073297;28;20203;-41
2021/01/23 11:52:37;;;;;;;5.85;5.30;;;5.90;99.90;;;;;;5073565;28;20314;-45
2021/01/23 11:55:08;;;;;;;7.07;6.00;;;5.90;99.90;;;;;;5073486;28;20290;-45
2021/01/23 11:57:35;;;;;;;6.22;5.72;;;5.80;99.90;;;;;;5073413;28;20203;-43
2021/01/23 12:00:04;;;;;;;6.43;5.78;;;5.80;99.90;;;;;;5073126;28;20223;-44
2021/01/23 12:02:32;;;;;;;6.90;6.03;;;5.80;99.90;;;;;;5073361;28;20303;-43
2021/01/23 12:05:00;;;;;;;6.05;5.22;;;5.90;99.90;;;;;;5073281;28;20212;-44
2021/01/23 12:07:27;;;;;;;5.63;5.10;;;6.00;99.90;;;;;;5073173;28;20293;-43
2021/01/23 12:09:54;;;;;;;5.38;4.88;;;6.10;99.90;;;;;;5073071;28;20238;-43
2021/01/23 12:12:22;;;;;;;6.00;5.45;;;6.30;99.90;;;;;;5073158;28;20294;-48
2021/01/23 12:14:49;;;;;;;7.22;6.57;;;6.30;99.90;;;;;;5073438;28;20756;-44
2021/01/23 12:17:16;;;;;;;8.63;6.53;;;6.40;99.90;;;;;;5073010;28;20302;-48
2021/01/23 12:19:43;;;;;;;6.18;5.68;;;6.40;99.90;;;;;;5073166;28;20254;-45
2021/01/23 12:22:11;;;;;;;7.07;6.43;;;6.40;99.90;;;;;;5073182;28;20307;-45
2021/01/23 12:24:38;;;;;;;6.72;6.03;;;6.30;99.90;;;;;;5073142;28;20237;-47
2021/01/23 12:27:07;;;;;;;7.45;5.30;;;6.40;99.90;;;;;;5073094;28;20299;-45
2021/01/23 12:29:36;;;;;;;9.75;6.93;;;6.40;99.90;;;;;;5072791;28;20238;-45
2021/01/23 12:32:06;;;;;;;7.25;6.53;;;6.40;99.90;;;;;;5073207;28;20290;-46
2021/01/23 12:34:34;;;;;;;7.95;7.15;;;6.40;99.90;;;;;;5072348;28;20213;-46
2021/01/23 12:37:01;;;;;;;6.93;6.07;;;6.50;99.90;;;;;;5072715;28;20214;-44
2021/01/23 12:39:28;;;;;;;5.53;4.82;;;6.50;99.90;;;;;;5072521;28;20311;-44
2021/01/23 12:41:55;;;;;;;5.50;5.00;;;6.60;99.90;;;;;;5072561;28;20242;-43
2021/01/23 12:44:23;;;;;;;6.63;5.65;;;6.60;99.90;;;;;;5072400;28;20306;-43
2021/01/23 12:46:53;;;;;;;6.72;6.13;;;6.50;99.90;;;;;;5072546;28;20215;-46
2021/01/23 12:49:20;;;;;;;7.68;7.03;;;6.60;99.90;;;;;;5072264;28;20203;-49
2021/01/23 12:51:47;;;;;;;5.55;4.65;;;6.70;99.90;;;;;;5072139;28;20652;-50
2021/01/23 12:54:14;;;;;;;5.05;4.65;;;6.70;99.90;;;;;;5072557;28;20263;-48
2021/01/23 12:56:42;;;;;;;6.13;5.63;;;6.70;99.90;;;;;;5072284;28;20214;-54
2021/01/23 12:59:10;;;;;;;5.80;5.25;;;6.70;99.90;;;;;;5072051;28;20223;-51
2021/01/23 13:01:38;;;;;;;10.90;7.90;;;6.70;99.90;;;;;;5072457;28;20299;-49
2021/01/23 13:04:07;;;;;;;7.70;6.22;;;6.60;99.90;;;;;;5072313;28;20563;-49
2021/01/23 13:06:34;;;;;;;5.97;5.38;;;6.60;99.90;;;;;;5071953;28;20294;-44